createdAt,value
2022-10-12T00:02:19.115Z,6.99
2022-10-12T00:04:47.806Z,7.10
2022-10-12T00:07:16.541Z,7.11
2022-10-12T00:09:47.317Z,7.08
2022-10-12T00:12:15.827Z,7.08
2022-10-12T00:14:44.595Z,7.06
2022-10-12T00:17:13.722Z,7.10
2022-10-12T00:19:42.231Z,7.08
2022-10-12T00:22:10.984Z,7.05
2022-10-12T00:24:42.796Z,7.01
2022-10-12T00:27:13.374Z,7.00
2022-10-12T00:29:41.809Z,7.03
2022-10-12T00:32:10.752Z,7.03
2022-10-12T00:34:39.292Z,7.03
2022-10-12T00:37:07.843Z,7.02
2022-10-12T00:39:36.510Z,7.01
2022-10-12T00:42:05.852Z,6.92
2022-10-12T00:44:45.664Z,6.88
2022-10-12T00:47:27.492Z,6.89
2022-10-12T00:50:03.988Z,6.91
2022-10-12T00:52:42.696Z,6.86
2022-10-12T00:55:16.796Z,6.87
2022-10-12T00:57:48.032Z,6.83
2022-10-12T01:00:20.555Z,6.73
2022-10-12T01:02:52.927Z,6.69
2022-10-12T01:05:22.518Z,6.74
2022-10-12T01:07:51.286Z,6.70
2022-10-12T01:10:20.191Z,6.70
2022-10-12T01:12:51.118Z,6.67
2022-10-12T01:15:24.004Z,6.69
2022-10-12T01:18:05.290Z,6.69
2022-10-12T01:21:06.653Z,6.71
2022-10-12T01:24:22.726Z,6.69
2022-10-12T01:27:26.260Z,6.69
2022-10-12T01:30:25.345Z,6.67
2022-10-12T01:33:33.253Z,6.64
2022-10-12T01:36:10.853Z,6.58
2022-10-12T01:38:52.765Z,6.55
2022-10-12T01:41:29.936Z,6.52
2022-10-12T01:43:58.400Z,6.44
2022-10-12T01:46:46.685Z,6.45
2022-10-12T01:49:20.935Z,6.47
2022-10-12T01:52:18.672Z,6.49
2022-10-12T01:55:18.348Z,6.36
2022-10-12T01:58:01.183Z,6.24
2022-10-12T02:00:32.431Z,6.30
2022-10-12T02:03:17.813Z,6.22
2022-10-12T02:05:54.606Z,6.26
2022-10-12T02:08:31.723Z,6.24
2022-10-12T02:11:08.071Z,6.30
2022-10-12T02:13:44.740Z,6.33
2022-10-12T02:16:17.182Z,6.26
2022-10-12T02:18:53.311Z,6.26
2022-10-12T02:21:28.648Z,6.15
2022-10-12T02:24:02.535Z,6.16
2022-10-12T02:26:35.412Z,6.11
2022-10-12T02:29:11.350Z,6.16
2022-10-12T02:31:48.413Z,6.15
2022-10-12T02:34:24.387Z,6.18
2022-10-12T02:37:04.030Z,6.17
2022-10-12T02:39:41.366Z,6.14
2022-10-12T02:42:14.609Z,6.10
2022-10-12T02:44:46.152Z,6.12
2022-10-12T02:47:17.703Z,6.12
2022-10-12T02:49:49.443Z,6.11
2022-10-12T02:52:17.853Z,5.95
2022-10-12T02:54:47.918Z,5.96
2022-10-12T02:57:16.400Z,5.99
2022-10-12T02:59:45.773Z,5.96
2022-10-12T03:02:14.801Z,5.96
2022-10-12T03:04:44.101Z,5.94
2022-10-12T03:07:14.851Z,5.94
2022-10-12T03:09:43.866Z,5.92
2022-10-12T03:12:12.357Z,5.94
2022-10-12T03:14:40.857Z,5.97
2022-10-12T03:17:09.331Z,5.95
2022-10-12T03:19:39.855Z,5.93
2022-10-12T03:22:08.391Z,5.93
2022-10-12T03:24:38.670Z,5.96
2022-10-12T03:27:07.183Z,5.92
2022-10-12T03:29:35.537Z,5.88
2022-10-12T03:32:04.062Z,5.90
2022-10-12T03:34:33.732Z,5.89
2022-10-12T03:37:02.176Z,5.89
2022-10-12T03:39:30.662Z,5.85
2022-10-12T03:42:00.501Z,5.80
2022-10-12T03:44:30.106Z,5.82
2022-10-12T03:46:59.205Z,5.82
2022-10-12T03:49:27.666Z,5.86
2022-10-12T03:51:56.827Z,5.88
2022-10-12T03:54:25.335Z,5.91
2022-10-12T03:56:54.362Z,5.92
2022-10-12T03:59:24.300Z,5.93
2022-10-12T04:01:52.831Z,5.94
2022-10-12T04:04:21.328Z,5.95
2022-10-12T04:06:49.743Z,5.99
2022-10-12T04:09:18.259Z,6.04
2022-10-12T04:11:47.248Z,6.07
2022-10-12T04:14:16.711Z,6.13
2022-10-12T04:16:47.116Z,6.14
2022-10-12T04:19:16.690Z,6.16
2022-10-12T04:21:45.140Z,6.18
2022-10-12T04:24:14.217Z,6.21
2022-10-12T04:26:42.758Z,6.20
2022-10-12T04:29:14.432Z,6.22
2022-10-12T04:31:43.599Z,6.20
2022-10-12T04:34:13.815Z,6.21
2022-10-12T04:36:42.401Z,6.21
2022-10-12T04:39:11.122Z,6.23
2022-10-12T04:41:40.145Z,6.28
2022-10-12T04:44:10.383Z,6.28
2022-10-12T04:46:39.611Z,6.29
2022-10-12T04:49:08.797Z,6.30
2022-10-12T04:51:39.205Z,6.29
2022-10-12T04:54:07.840Z,6.28
2022-10-12T04:56:36.371Z,6.29
2022-10-12T04:59:05.451Z,6.31
2022-10-12T05:01:34.086Z,6.30
2022-10-12T05:04:02.762Z,6.26
2022-10-12T05:06:32.602Z,6.35
2022-10-12T05:09:02.813Z,6.38
2022-10-12T05:11:31.538Z,6.41
2022-10-12T05:14:00.674Z,6.43
2022-10-12T05:16:29.228Z,6.42
2022-10-12T05:18:59.872Z,6.47
2022-10-12T05:21:28.344Z,6.50
2022-10-12T05:23:56.962Z,6.53
2022-10-12T05:26:27.031Z,6.54
2022-10-12T05:28:55.715Z,6.58
2022-10-12T05:31:24.366Z,6.59
2022-10-12T05:33:53.619Z,6.58
2022-10-12T05:36:22.127Z,6.61
2022-10-12T05:38:50.800Z,6.63
2022-10-12T05:41:19.528Z,6.66
2022-10-12T05:43:50.463Z,6.68
2022-10-12T05:46:19.584Z,6.68
2022-10-12T05:48:48.119Z,6.66
2022-10-12T05:51:16.619Z,6.64
2022-10-12T05:53:45.288Z,6.68
2022-10-12T05:56:14.679Z,6.74
2022-10-12T05:58:44.204Z,6.76
2022-10-12T06:01:16.150Z,6.76
2022-10-12T06:03:44.650Z,6.79
2022-10-12T06:06:13.356Z,6.79
2022-10-12T06:08:42.126Z,6.83
2022-10-12T06:11:10.640Z,6.78
2022-10-12T06:13:39.337Z,6.80
2022-10-12T06:16:08.883Z,6.83
2022-10-12T06:18:39.305Z,6.86
2022-10-12T06:21:31.896Z,6.89
2022-10-12T06:23:58.396Z,6.91
2022-10-12T06:26:29.662Z,6.97
2022-10-12T06:29:00.780Z,6.98
2022-10-12T06:31:29.858Z,7.03
2022-10-12T06:33:59.920Z,7.06
2022-10-12T06:36:28.532Z,7.08
2022-10-12T06:38:57.105Z,7.11
2022-10-12T06:41:26.335Z,7.13
2022-10-12T06:43:56.186Z,7.18
2022-10-12T06:46:24.899Z,7.19
2022-10-12T06:48:53.568Z,7.21
2022-10-12T06:51:25.199Z,7.23
2022-10-12T06:53:56.789Z,7.27
2022-10-12T06:56:26.292Z,7.32
2022-10-12T06:58:59.372Z,7.34
2022-10-12T07:01:28.057Z,7.36
2022-10-12T07:04:00.538Z,7.40
2022-10-12T07:06:31.590Z,7.42
2022-10-12T07:09:01.274Z,7.45
2022-10-12T07:11:30.595Z,7.47
2022-10-12T07:14:00.112Z,7.51
2022-10-12T07:16:29.292Z,7.55
2022-10-12T07:18:58.510Z,7.62
2022-10-12T07:21:27.114Z,7.66
2022-10-12T07:23:58.150Z,7.72
2022-10-12T07:26:26.935Z,7.78
2022-10-12T07:28:55.656Z,7.79
2022-10-12T07:31:24.460Z,7.85
2022-10-12T07:33:53.427Z,7.92
2022-10-12T07:36:23.519Z,7.99
2022-10-12T07:38:52.187Z,8.04
2022-10-12T07:41:22.222Z,8.06
2022-10-12T07:43:56.397Z,8.06
2022-10-12T07:46:26.035Z,8.09
2022-10-12T07:48:54.835Z,8.09
2022-10-12T07:51:23.527Z,8.12
2022-10-12T07:53:52.279Z,8.15
2022-10-12T07:56:22.306Z,8.15
2022-10-12T07:58:52.685Z,8.15
2022-10-12T08:01:23.760Z,8.16
2022-10-12T08:03:57.466Z,8.20
2022-10-12T08:06:32.145Z,8.25
2022-10-12T08:09:02.411Z,8.27
2022-10-12T08:11:32.382Z,8.32
2022-10-12T08:14:00.945Z,8.39
2022-10-12T08:16:29.538Z,8.48
2022-10-12T08:18:58.606Z,8.55
2022-10-12T08:21:27.727Z,8.63
2022-10-12T08:23:56.272Z,8.70
2022-10-12T08:26:25.178Z,8.77
2022-10-12T08:28:55.936Z,8.83
2022-10-12T08:31:24.770Z,8.90
2022-10-12T08:33:53.582Z,8.97
2022-10-12T08:36:22.883Z,9.06
2022-10-12T08:38:54.089Z,9.12
2022-10-12T08:41:41.058Z,9.20
2022-10-12T08:44:40.562Z,9.29
2022-10-12T08:47:17.872Z,9.36
2022-10-12T08:49:50.084Z,9.42
2022-10-12T08:52:30.153Z,9.51
2022-10-12T08:55:06.392Z,9.60
2022-10-12T08:57:35.919Z,9.70
2022-10-12T09:00:11.748Z,9.76
2022-10-12T09:02:59.591Z,9.84
2022-10-12T09:05:36.404Z,9.91
2022-10-12T09:08:16.781Z,9.99
2022-10-12T09:10:50.975Z,10.10
2022-10-12T09:13:42.558Z,10.19
2022-10-12T09:16:25.309Z,10.28
2022-10-12T09:18:58.793Z,10.36
2022-10-12T09:21:32.392Z,10.44
2022-10-12T09:24:02.284Z,10.53
2022-10-12T09:26:37.547Z,10.63
2022-10-12T09:29:28.264Z,10.71
2022-10-12T09:32:25.187Z,10.78
2022-10-12T09:34:54.995Z,10.86
2022-10-12T09:37:27.366Z,10.92
2022-10-12T09:39:59.061Z,11.01
2022-10-12T09:42:27.693Z,11.08
2022-10-12T09:45:04.183Z,11.16
2022-10-12T09:47:34.942Z,11.22
2022-10-12T09:50:06.398Z,11.29
2022-10-12T09:52:46.060Z,11.36
2022-10-12T09:58:00.528Z,11.49
2022-10-12T10:00:31.642Z,11.55
2022-10-12T10:03:03.933Z,11.63
2022-10-12T10:05:35.582Z,11.70
2022-10-12T10:08:21.149Z,11.75
2022-10-12T10:10:52.921Z,11.81
2022-10-12T10:13:24.983Z,11.85
2022-10-12T10:16:07.226Z,11.93
2022-10-12T10:18:43.030Z,11.97
2022-10-12T10:21:16.552Z,12.06
2022-10-12T10:23:53.679Z,12.10
2022-10-12T10:26:27.792Z,12.15
2022-10-12T10:29:18.562Z,12.22
2022-10-12T10:31:48.287Z,12.28
2022-10-12T10:34:27.597Z,12.36
2022-10-12T10:36:58.841Z,12.43
2022-10-12T10:39:33.294Z,12.49
2022-10-12T10:42:14.204Z,12.51
2022-10-12T10:44:52.137Z,12.55
2022-10-12T10:47:22.286Z,12.58
2022-10-12T10:49:57.530Z,12.60
2022-10-12T10:52:30.796Z,12.65
2022-10-12T10:55:20.944Z,12.71
2022-10-12T10:58:01.113Z,12.75
2022-10-12T11:00:39.101Z,12.81
2022-10-12T11:03:17.531Z,12.82
2022-10-12T11:05:55.360Z,12.83
2022-10-12T11:08:28.314Z,12.87
2022-10-12T11:11:03.957Z,12.90
2022-10-12T11:13:39.806Z,12.95
2022-10-12T11:16:28.174Z,12.96
2022-10-12T11:19:01.674Z,12.98
2022-10-12T11:21:44.498Z,13.01
2022-10-12T11:24:18.687Z,13.03
2022-10-12T11:26:54.857Z,13.09
2022-10-12T11:29:24.131Z,13.13
2022-10-12T11:32:04.226Z,13.19
2022-10-12T11:34:44.901Z,13.24
2022-10-12T11:37:21.860Z,13.27
2022-10-12T11:39:54.348Z,13.33
2022-10-12T11:42:32.676Z,13.38
2022-10-12T11:45:16.300Z,13.43
2022-10-12T11:47:49.262Z,13.48
2022-10-12T11:50:31.575Z,13.51
2022-10-12T11:53:08.649Z,13.57
2022-10-12T11:55:59.681Z,13.63
2022-10-12T11:58:56.055Z,13.70
2022-10-12T12:01:48.479Z,13.77
2022-10-12T12:04:44.443Z,13.79
2022-10-12T12:07:48.246Z,13.83
2022-10-12T12:11:03.556Z,13.84
2022-10-12T12:13:33.366Z,13.88
2022-10-12T12:16:34.117Z,13.92
2022-10-12T12:19:42.927Z,13.96
2022-10-12T12:22:33.030Z,14.02
2022-10-12T12:25:28.791Z,14.09
2022-10-12T12:28:06.660Z,14.17
2022-10-12T12:30:39.144Z,14.23
2022-10-12T12:33:32.160Z,14.25
2022-10-12T12:36:03.948Z,14.31
2022-10-12T12:38:36.533Z,14.35
2022-10-12T12:41:11.903Z,14.45
2022-10-12T12:44:06.444Z,14.46
2022-10-12T12:47:45.042Z,14.53
2022-10-12T12:50:33.268Z,14.57
2022-10-12T12:53:09.706Z,14.62
2022-10-12T12:56:04.494Z,14.68
2022-10-12T12:58:58.605Z,14.71
2022-10-12T13:02:13.830Z,14.74
2022-10-12T13:05:25.608Z,14.75
2022-10-12T13:08:15.642Z,14.80
2022-10-12T13:11:05.527Z,14.84
2022-10-12T13:14:02.691Z,14.86
2022-10-12T13:19:56.488Z,14.94
2022-10-12T13:22:31.117Z,15.01
2022-10-12T13:25:05.729Z,15.03
2022-10-12T13:27:42.149Z,15.08
2022-10-12T13:30:24.610Z,15.14
2022-10-12T13:33:03.235Z,15.21
2022-10-12T13:35:40.240Z,15.27
2022-10-12T13:38:22.592Z,15.35
2022-10-12T13:41:02.392Z,15.32
2022-10-12T13:43:39.932Z,15.38
2022-10-12T13:46:11.914Z,15.42
2022-10-12T13:49:04.937Z,15.46
2022-10-12T13:51:35.142Z,15.48
2022-10-12T13:54:14.974Z,15.55
2022-10-12T13:56:44.213Z,15.64
2022-10-12T13:59:20.169Z,15.82
2022-10-12T14:02:00.657Z,16.12
2022-10-12T14:04:33.723Z,16.33
2022-10-12T14:07:07.540Z,16.67
2022-10-12T14:09:48.657Z,16.76
2022-10-12T14:12:21.741Z,16.92
2022-10-12T14:14:54.284Z,16.94
2022-10-12T14:17:23.137Z,16.97
2022-10-12T14:19:56.417Z,16.94
2022-10-12T14:22:30.133Z,16.91
2022-10-12T14:25:16.136Z,16.79
2022-10-12T14:27:45.195Z,16.74
2022-10-12T14:30:22.514Z,16.68
2022-10-12T14:32:56.151Z,16.58
2022-10-12T14:35:32.235Z,16.56
2022-10-12T14:38:00.959Z,16.56
2022-10-12T14:40:40.352Z,16.51
2022-10-12T14:43:24.458Z,16.49
2022-10-12T14:45:53.559Z,16.46
2022-10-12T14:48:24.062Z,16.42
2022-10-12T14:50:54.612Z,16.43
2022-10-12T14:53:29.140Z,16.39
2022-10-12T14:55:57.703Z,16.39
2022-10-12T14:58:26.669Z,16.35
2022-10-12T15:00:55.666Z,16.31
2022-10-12T15:03:24.763Z,16.31
2022-10-12T15:05:54.726Z,16.27
2022-10-12T15:08:23.236Z,16.22
2022-10-12T15:10:53.239Z,16.17
2022-10-12T15:13:21.799Z,16.19
2022-10-12T15:15:55.074Z,16.18
2022-10-12T15:18:23.583Z,16.14
2022-10-12T15:20:56.297Z,16.13
2022-10-12T15:23:25.016Z,16.07
2022-10-12T15:25:56.211Z,15.98
2022-10-12T15:28:25.379Z,15.92
2022-10-12T15:33:44.336Z,15.76
2022-10-12T15:36:15.274Z,15.71
2022-10-12T15:38:44.540Z,15.67
2022-10-12T15:41:19.281Z,15.63
2022-10-12T15:43:48.012Z,15.58
2022-10-12T15:46:16.589Z,15.55
2022-10-12T15:48:45.434Z,15.52
2022-10-12T15:51:20.715Z,15.49
2022-10-12T15:53:50.033Z,15.45
2022-10-12T15:56:19.932Z,15.41
2022-10-12T15:58:48.651Z,15.39
2022-10-12T16:01:20.447Z,15.32
2022-10-12T16:03:49.867Z,15.28
2022-10-12T16:06:20.257Z,15.21
2022-10-12T16:08:49.166Z,15.20
2022-10-12T16:11:19.805Z,15.12
2022-10-12T16:13:55.496Z,15.07
2022-10-12T16:16:25.513Z,15.04
2022-10-12T16:18:54.363Z,15.07
2022-10-12T16:21:24.437Z,15.03
2022-10-12T16:23:53.553Z,14.96
2022-10-12T16:26:22.205Z,14.91
2022-10-12T16:28:51.161Z,14.81
2022-10-12T16:31:19.992Z,14.74
2022-10-12T16:33:48.597Z,14.64
2022-10-12T16:36:18.492Z,14.55
2022-10-12T16:38:50.925Z,14.47
2022-10-12T16:41:19.718Z,14.39
2022-10-12T16:43:48.832Z,14.30
2022-10-12T16:46:18.486Z,14.22
2022-10-12T16:48:47.119Z,14.15
2022-10-12T16:51:15.812Z,14.08
2022-10-12T16:53:44.366Z,14.03
2022-10-12T16:56:14.151Z,13.96
2022-10-12T16:58:43.270Z,13.86
2022-10-12T17:01:13.747Z,13.78
2022-10-12T17:03:42.942Z,13.73
2022-10-12T17:06:11.998Z,13.66
2022-10-12T17:08:40.418Z,13.64
2022-10-12T17:11:10.612Z,13.59
2022-10-12T17:13:48.098Z,13.54
2022-10-12T17:16:36.442Z,13.42
2022-10-12T17:19:05.150Z,13.38
2022-10-12T17:21:34.423Z,13.31
2022-10-12T17:24:03.576Z,13.30
2022-10-12T17:26:32.359Z,13.26
2022-10-12T17:29:05.891Z,13.21
2022-10-12T17:31:34.589Z,13.26
2022-10-12T17:34:03.756Z,13.19
2022-10-12T17:36:32.568Z,13.17
2022-10-12T17:39:01.866Z,13.13
2022-10-12T17:41:31.458Z,13.09
2022-10-12T17:44:01.422Z,13.08
2022-10-12T17:46:30.008Z,13.02
2022-10-12T17:48:59.373Z,13.01
2022-10-12T17:51:28.661Z,12.97
2022-10-12T17:53:57.084Z,12.91
2022-10-12T17:56:26.083Z,12.93
2022-10-12T17:58:56.223Z,12.91
2022-10-12T18:01:28.104Z,12.87
2022-10-12T18:03:56.919Z,12.88
2022-10-12T18:06:26.091Z,12.87
2022-10-12T18:08:56.553Z,12.85
2022-10-12T18:11:26.322Z,12.86
2022-10-12T18:13:57.558Z,12.82
2022-10-12T18:16:30.572Z,12.80
2022-10-12T18:19:02.327Z,12.73
2022-10-12T18:21:33.972Z,12.69
2022-10-12T18:24:08.072Z,12.65
2022-10-12T18:26:42.504Z,12.59
2022-10-12T18:29:11.139Z,12.56
2022-10-12T18:31:41.552Z,12.48
2022-10-12T18:34:11.335Z,12.44
2022-10-12T18:36:43.018Z,12.42
2022-10-12T18:39:15.252Z,12.36
2022-10-12T18:41:44.690Z,12.29
2022-10-12T18:44:15.361Z,12.20
2022-10-12T18:46:46.545Z,12.21
2022-10-12T18:49:16.149Z,12.12
2022-10-12T18:51:49.255Z,12.11
2022-10-12T18:54:18.438Z,12.06
2022-10-12T18:56:47.322Z,12.06
2022-10-12T18:59:18.572Z,12.04
2022-10-12T19:01:50.368Z,11.99
2022-10-12T19:04:22.046Z,11.92
2022-10-12T19:06:57.815Z,11.83
2022-10-12T19:09:27.415Z,11.80
2022-10-12T19:11:57.163Z,11.79
2022-10-12T19:14:26.221Z,11.71
2022-10-12T19:16:56.863Z,11.69
2022-10-12T19:19:25.949Z,11.67
2022-10-12T19:21:55.398Z,11.68
2022-10-12T19:24:24.166Z,11.63
2022-10-12T19:26:53.025Z,11.56
2022-10-12T19:29:22.281Z,11.57
2022-10-12T19:31:52.239Z,11.56
2022-10-12T19:34:24.899Z,11.45
2022-10-12T19:36:54.144Z,11.45
2022-10-12T19:39:24.796Z,11.43
2022-10-12T19:41:54.489Z,11.41
2022-10-12T19:44:25.241Z,11.33
2022-10-12T19:46:54.327Z,11.27
2022-10-12T19:49:24.871Z,11.29
2022-10-12T19:51:53.756Z,11.24
2022-10-12T19:54:22.788Z,11.25
2022-10-12T19:56:51.600Z,11.26
2022-10-12T19:59:20.447Z,11.21
2022-10-12T20:01:49.039Z,11.17
2022-10-12T20:04:17.768Z,11.20
2022-10-12T20:06:48.411Z,11.15
2022-10-12T20:09:17.029Z,11.10
2022-10-12T20:11:46.278Z,11.09
2022-10-12T20:14:14.884Z,11.06
2022-10-12T20:16:43.816Z,11.01
2022-10-12T20:19:12.659Z,10.98
2022-10-12T20:21:41.779Z,10.97
2022-10-12T20:24:16.819Z,10.93
2022-10-12T20:26:45.527Z,10.88
2022-10-12T20:29:14.188Z,10.86
2022-10-12T20:31:44.000Z,10.83
2022-10-12T20:34:13.009Z,10.76
2022-10-12T20:36:41.736Z,10.75
2022-10-12T20:39:10.418Z,10.71
2022-10-12T20:41:41.672Z,10.69
2022-10-12T20:44:12.617Z,10.65
2022-10-12T20:46:44.453Z,10.63
2022-10-12T20:49:13.666Z,10.59
2022-10-12T20:51:44.803Z,10.51
2022-10-12T20:54:16.418Z,10.39
2022-10-12T20:56:52.315Z,10.41
2022-10-12T20:59:21.526Z,10.37
2022-10-12T21:01:50.722Z,10.39
2022-10-12T21:04:19.350Z,10.37
2022-10-12T21:06:48.448Z,10.28
2022-10-12T21:09:17.489Z,10.23
2022-10-12T21:11:48.314Z,10.23
2022-10-12T21:14:16.957Z,10.26
2022-10-12T21:16:45.989Z,10.22
2022-10-12T21:19:17.883Z,10.16
2022-10-12T21:21:47.789Z,10.17
2022-10-12T21:24:17.739Z,10.14
2022-10-12T21:26:48.654Z,10.09
2022-10-12T21:29:17.340Z,10.07
2022-10-12T21:31:46.050Z,10.06
2022-10-12T21:34:15.299Z,9.98
2022-10-12T21:36:43.886Z,9.94
2022-10-12T21:39:15.515Z,9.95
2022-10-12T21:41:45.096Z,9.92
2022-10-12T21:44:16.198Z,9.91
2022-10-12T21:46:44.875Z,9.90
2022-10-12T21:49:13.509Z,9.90
2022-10-12T21:51:42.244Z,9.81
2022-10-12T21:54:10.989Z,9.76
2022-10-12T21:56:39.965Z,9.63
2022-10-12T21:59:08.972Z,9.61
2022-10-12T22:01:42.222Z,9.65
2022-10-12T22:04:15.935Z,9.58
2022-10-12T22:06:45.217Z,9.57
2022-10-12T22:09:19.154Z,9.57
2022-10-12T22:11:48.532Z,9.57
2022-10-12T22:14:21.778Z,9.52
2022-10-12T22:16:52.553Z,9.47
2022-10-12T22:19:22.477Z,9.50
2022-10-12T22:21:52.999Z,9.52
2022-10-12T22:24:22.900Z,9.45
2022-10-12T22:26:52.004Z,9.40
2022-10-12T22:29:21.756Z,9.35
2022-10-12T22:31:53.006Z,9.39
2022-10-12T22:34:21.979Z,9.41
2022-10-12T22:36:51.265Z,9.40
2022-10-12T22:39:19.905Z,9.43
2022-10-12T22:41:49.161Z,9.42
2022-10-12T22:44:18.457Z,9.40
2022-10-12T22:46:47.791Z,9.41
2022-10-12T22:49:18.896Z,9.40
2022-10-12T22:51:47.829Z,9.44
2022-10-12T22:54:17.004Z,9.44
2022-10-12T22:56:46.090Z,9.41
2022-10-12T22:59:16.468Z,9.42
2022-10-12T23:01:45.901Z,9.42
2022-10-12T23:04:14.654Z,9.43
2022-10-12T23:06:45.083Z,9.43
2022-10-12T23:09:14.674Z,9.42
2022-10-12T23:11:43.541Z,9.40
2022-10-12T23:14:13.239Z,9.41
2022-10-12T23:16:42.193Z,9.39
2022-10-12T23:19:11.880Z,9.38
2022-10-12T23:21:42.395Z,9.40
2022-10-12T23:24:12.778Z,9.40
2022-10-12T23:26:41.511Z,9.41
2022-10-12T23:29:10.902Z,9.39
2022-10-12T23:31:40.276Z,9.39
2022-10-12T23:34:09.766Z,9.39
2022-10-12T23:36:39.412Z,9.33
2022-10-12T23:39:08.722Z,9.33
2022-10-12T23:41:39.292Z,9.31
2022-10-12T23:44:09.485Z,9.29
2022-10-12T23:46:39.957Z,9.24
2022-10-12T23:49:08.672Z,9.24
2022-10-12T23:51:37.986Z,9.24
2022-10-12T23:54:07.948Z,9.21
2022-10-12T23:56:38.798Z,9.24
2022-10-12T23:59:08.267Z,9.20
